Time;durP1;ratioP1;P1;durP2;ratioP2;P2;SDS_P1;SDS_P2;PMS_P1;PMS_P2;Temp;Humidity;BMP_temperature;BMP_pressure;BME280_temperature;BME280_humidity;BME280_pressure;Samples;Min_cycle;Max_cycle;Signal;HPM_P1;HPM_P2
2020/12/03 00:00:14;;;;;;;2.78;1.58;;;13.30;67.60;;;;;;5052666;28;20033;-75
2020/12/03 00:03:00;;;;;;;2.60;1.70;;;13.30;67.60;;;;;;5049421;28;21224;-75
2020/12/03 00:05:29;;;;;;;2.40;1.52;;;13.30;67.60;;;;;;5050724;28;20037;-75
2020/12/03 00:08:03;;;;;;;2.85;1.60;;;13.30;67.60;;;;;;5065036;28;20033;-76
2020/12/03 00:10:51;;;;;;;2.30;1.50;;;13.30;67.60;;;;;;5049183;28;20021;-75
2020/12/03 00:13:24;;;;;;;2.92;1.70;;;13.30;67.60;;;;;;5049765;28;20040;-77
2020/12/03 00:16:26;;;;;;;4.45;1.98;;;13.30;67.60;;;;;;5056174;28;20040;-76
2020/12/03 00:19:13;;;;;;;2.10;1.50;;;13.30;67.50;;;;;;5051039;28;20459;-75
2020/12/03 00:22:04;;;;;;;2.80;1.67;;;13.30;67.60;;;;;;5050036;28;20040;-75
2020/12/03 00:24:36;;;;;;;3.45;1.70;;;13.30;67.60;;;;;;5049045;28;20682;-76
2020/12/03 00:27:13;;;;;;;3.10;1.80;;;13.30;67.60;;;;;;5041901;28;20021;-77
2020/12/03 00:29:52;;;;;;;2.60;1.67;;;13.30;67.60;;;;;;5039711;28;20029;-75
2020/12/03 00:33:05;;;;;;;;;;;;;;;;;;;;;
2020/12/03 00:35:35;;;;;;;2.05;1.50;;;13.30;67.60;;;;;;5050672;28;20028;-76
2020/12/03 00:38:32;;;;;;;2.83;1.70;;;13.30;67.60;;;;;;5045137;28;20421;-76
2020/12/03 00:41:05;;;;;;;3.55;1.58;;;13.30;67.60;;;;;;5051668;28;20032;-74
2020/12/03 00:43:40;;;;;;;2.63;1.55;;;13.30;67.60;;;;;;5063283;28;20450;-75
2020/12/03 00:46:11;;;;;;;2.08;1.30;;;13.30;67.60;;;;;;5050872;28;20493;-75
2020/12/03 00:48:58;;;;;;;4.88;1.95;;;13.30;67.60;;;;;;5053755;28;20074;-75
2020/12/03 00:51:44;;;;;;;2.20;1.20;;;13.30;67.60;;;;;;5050082;28;20061;-75
2020/12/03 00:54:15;;;;;;;2.50;1.70;;;13.30;67.60;;;;;;5059015;28;20037;-75
2020/12/03 00:56:56;;;;;;;2.92;1.90;;;13.30;67.60;;;;;;5052004;28;20048;-75
2020/12/03 00:59:22;;;;;;;2.70;1.75;;;13.30;67.60;;;;;;5051181;28;20028;-75
2020/12/03 01:02:03;;;;;;;3.25;1.73;;;13.30;67.60;;;;;;5051586;28;20025;-75
2020/12/03 01:04:41;;;;;;;2.22;1.63;;;13.30;67.60;;;;;;5066532;28;20087;-75
2020/12/03 01:07:38;;;;;;;3.50;1.83;;;13.30;67.50;;;;;;5050420;28;20033;-75
2020/12/03 01:10:33;;;;;;;3.35;2.05;;;13.30;67.50;;;;;;5044919;28;20025;-76
2020/12/03 01:13:27;;;;;;;2.65;1.75;;;13.30;67.50;;;;;;5066402;28;20125;-75
2020/12/03 01:15:58;;;;;;;3.85;1.80;;;13.30;67.50;;;;;;5051196;28;20029;-75
2020/12/03 01:18:32;;;;;;;2.45;1.40;;;13.30;67.60;;;;;;5065956;28;20459;-75
2020/12/03 01:21:12;;;;;;;4.57;2.00;;;13.30;67.50;;;;;;5069621;28;20025;-75
2020/12/03 01:23:51;;;;;;;2.03;1.60;;;13.30;67.60;;;;;;5044646;28;20026;-75
2020/12/03 01:26:21;;;;;;;3.00;1.80;;;13.30;67.50;;;;;;5064467;28;20044;-77
2020/12/03 01:29:23;;;;;;;2.50;1.67;;;13.30;67.60;;;;;;5053888;28;20025;-75
2020/12/03 01:31:53;;;;;;;3.67;1.83;;;13.30;67.50;;;;;;5054029;28;20064;-75
2020/12/03 01:34:35;;;;;;;2.20;1.55;;;13.30;67.50;;;;;;5052187;28;20029;-76
2020/12/03 01:37:06;;;;;;;2.33;1.42;;;13.30;67.50;;;;;;5052137;28;20371;-77
2020/12/03 01:39:37;;;;;;;3.47;1.55;;;13.30;67.50;;;;;;5055536;28;20025;-77
2020/12/03 01:42:17;;;;;;;3.20;1.77;;;13.30;67.50;;;;;;5073997;28;20452;-77
2020/12/03 01:44:49;;;;;;;2.83;1.65;;;13.30;67.60;;;;;;5053696;28;20049;-75
2020/12/03 01:47:33;;;;;;;2.72;2.00;;;13.30;67.50;;;;;;5048423;28;20158;-75
2020/12/03 01:50:31;;;;;;;3.28;1.95;;;13.30;67.50;;;;;;5067931;28;20053;-75
2020/12/03 01:53:15;;;;;;;3.95;1.85;;;13.30;67.50;;;;;;5046334;28;20028;-75
2020/12/03 01:55:47;;;;;;;2.90;1.85;;;13.30;67.50;;;;;;5060896;28;20075;-75
2020/12/03 01:58:36;;;;;;;5.20;2.03;;;13.30;67.50;;;;;;5066790;28;20029;-76
2020/12/03 02:01:23;;;;;;;3.05;1.70;;;13.30;67.50;;;;;;5050799;28;20375;-77
2020/12/03 02:04:04;;;;;;;3.28;1.63;;;13.30;67.50;;;;;;5048085;28;20390;-75
2020/12/03 02:07:12;;;;;;;;;;;;;;;;;;;;;
2020/12/03 02:10:03;;;;;;;3.00;1.80;;;13.30;67.50;;;;;;5053532;28;20451;-75
2020/12/03 02:12:31;;;;;;;3.00;1.77;;;13.30;67.50;;;;;;5053637;28;20025;-75
2020/12/03 02:14:57;;;;;;;3.95;1.58;;;13.30;67.50;;;;;;5051750;28;20053;-76
2020/12/03 02:17:31;;;;;;;3.15;1.92;;;13.30;67.50;;;;;;5052385;28;20486;-75
2020/12/03 02:20:29;;;;;;;3.65;1.80;;;13.30;67.60;;;;;;5044153;28;20120;-75
2020/12/03 02:23:16;;;;;;;2.88;1.55;;;13.30;67.50;;;;;;5057361;28;20033;-75
2020/12/03 02:25:46;;;;;;;3.03;1.87;;;13.30;67.60;;;;;;5050961;28;20037;-76
2020/12/03 02:28:17;;;;;;;4.78;1.90;;;13.30;67.60;;;;;;5049850;28;20337;-76
2020/12/03 02:30:48;;;;;;;4.07;2.30;;;13.30;67.60;;;;;;5050539;28;20379;-76
2020/12/03 02:33:26;;;;;;;2.83;1.70;;;13.30;67.50;;;;;;5046738;28;20029;-75
2020/12/03 02:36:07;;;;;;;2.83;1.80;;;13.30;67.60;;;;;;5048399;28;20490;-75
2020/12/03 02:38:37;;;;;;;3.38;1.90;;;13.30;67.60;;;;;;5068798;28;20068;-76
2020/12/03 02:41:17;;;;;;;3.60;2.30;;;13.30;67.60;;;;;;5051941;28;20025;-77
2020/12/03 02:43:55;;;;;;;3.40;2.17;;;13.30;67.60;;;;;;5066508;28;20505;-76
2020/12/03 02:46:31;;;;;;;4.47;2.17;;;13.30;67.60;;;;;;5045251;28;20482;-75
2020/12/03 02:49:11;;;;;;;2.70;1.90;;;13.30;67.50;;;;;;5048456;28;20610;-75
2020/12/03 02:51:44;;;;;;;3.10;2.00;;;13.30;67.50;;;;;;5035706;28;20025;-75
2020/12/03 02:54:22;;;;;;;3.20;2.22;;;13.30;67.60;;;;;;5053051;28;20036;-75
2020/12/03 02:56:53;;;;;;;3.15;1.92;;;13.30;67.60;;;;;;5037987;28;20029;-75
2020/12/03 02:59:23;;;;;;;3.72;2.05;;;13.30;67.50;;;;;;5039287;28;20108;-75
2020/12/03 03:02:20;;;;;;;3.72;2.00;;;13.30;67.50;;;;;;5063663;28;20124;-75
2020/12/03 03:04:58;;;;;;;3.55;2.30;;;13.30;67.60;;;;;;5047327;28;20033;-75
2020/12/03 03:07:37;;;;;;;2.63;1.73;;;13.20;67.60;;;;;;5052952;28;20029;-75
2020/12/03 03:10:24;;;;;;;4.25;2.00;;;13.30;67.50;;;;;;5052879;28;20029;-77
2020/12/03 03:12:59;;;;;;;3.30;1.95;;;13.30;67.60;;;;;;5050589;28;20060;-75
2020/12/03 03:15:25;;;;;;;3.95;1.75;;;13.30;67.60;;;;;;5049349;28;20080;-75
2020/12/03 03:18:05;;;;;;;4.22;1.70;;;13.30;67.60;;;;;;5050538;28;20032;-75
2020/12/03 03:20:38;;;;;;;2.25;1.42;;;13.30;67.60;;;;;;5053565;28;20482;-77
2020/12/03 03:23:18;;;;;;;3.20;2.17;;;13.30;67.60;;;;;;5062912;28;20025;-75
2020/12/03 03:25:48;;;;;;;2.78;1.90;;;13.30;67.60;;;;;;5066026;28;20363;-75
2020/12/03 03:28:27;;;;;;;4.13;2.10;;;13.30;67.60;;;;;;5052084;28;20526;-76
2020/12/03 03:30:58;;;;;;;4.10;2.13;;;13.20;67.50;;;;;;5048723;28;20109;-75
2020/12/03 03:33:46;;;;;;;3.55;2.28;;;13.30;67.60;;;;;;5052268;28;20028;-76
2020/12/03 03:36:17;;;;;;;3.00;1.90;;;13.30;67.60;;;;;;5038786;28;20554;-76
2020/12/03 03:38:47;;;;;;;3.33;1.95;;;13.30;67.60;;;;;;5050532;28;20136;-75
2020/12/03 03:41:18;;;;;;;3.28;1.90;;;13.30;67.50;;;;;;5050390;28;20033;-75
2020/12/03 03:43:56;;;;;;;3.40;2.08;;;13.30;67.50;;;;;;5049884;28;20083;-75
2020/12/03 03:46:56;;;;;;;;;;;;;;;;;;;;;
2020/12/03 03:49:15;;;;;;;3.28;1.67;;;13.30;67.50;;;;;;5053629;28;20081;-77
2020/12/03 03:51:51;;;;;;;4.38;2.30;;;13.30;67.50;;;;;;5047932;28;21497;-75
2020/12/03 03:54:29;;;;;;;4.22;2.33;;;13.30;67.50;;;;;;5050970;28;20124;-75
2020/12/03 03:57:22;;;;;;;2.85;1.88;;;13.30;67.60;;;;;;5051075;28;20478;-75
2020/12/03 04:00:06;;;;;;;3.42;2.10;;;13.30;67.60;;;;;;5038228;28;20493;-75
2020/12/03 04:02:32;;;;;;;2.30;1.70;;;13.20;67.60;;;;;;5039509;28;20478;-77
2020/12/03 04:05:18;;;;;;;2.60;1.65;;;13.20;67.60;;;;;;5047041;28;20033;-76
2020/12/03 04:08:16;;;;;;;3.22;2.03;;;13.30;67.60;;;;;;5047974;28;20032;-76
2020/12/03 04:11:34;;;;;;;2.70;1.90;;;13.30;67.60;;;;;;5042740;28;20025;-77
2020/12/03 04:13:55;;;;;;;2.50;1.90;;;13.30;67.60;;;;;;5047292;28;20041;-76
2020/12/03 04:16:26;;;;;;;3.05;1.80;;;13.20;67.60;;;;;;5042218;28;20112;-76
2020/12/03 04:19:03;;;;;;;2.83;1.90;;;13.30;67.50;;;;;;5049418;28;20029;-77
2020/12/03 04:21:38;;;;;;;5.80;2.03;;;13.30;67.50;;;;;;5047150;28;20025;-76
2020/12/03 04:24:16;;;;;;;4.80;2.35;;;13.30;67.60;;;;;;5042558;28;20146;-76
2020/12/03 04:26:46;;;;;;;3.53;2.03;;;13.30;67.50;;;;;;5061187;28;20029;-78
2020/12/03 04:29:16;;;;;;;4.00;2.10;;;13.20;67.60;;;;;;5046118;28;20163;-76
2020/12/03 04:31:54;;;;;;;4.10;1.92;;;13.20;67.50;;;;;;5045338;28;20040;-76
2020/12/03 04:34:32;;;;;;;3.72;1.48;;;13.20;67.50;;;;;;5049122;28;20067;-77
2020/12/03 04:37:05;;;;;;;3.33;1.88;;;13.30;67.50;;;;;;5041248;28;20083;-76
2020/12/03 04:39:35;;;;;;;2.92;1.75;;;13.30;67.50;;;;;;5058789;28;20053;-77
2020/12/03 04:42:25;;;;;;;3.13;1.83;;;13.30;67.50;;;;;;5046517;28;20029;-77
2020/12/03 04:45:43;;;;;;;3.53;1.92;;;13.30;67.50;;;;;;5045987;28;20049;-77
2020/12/03 04:48:32;;;;;;;3.72;2.20;;;13.20;67.50;;;;;;5037962;28;20034;-76
2020/12/03 04:51:16;;;;;;;3.22;2.30;;;13.20;67.50;;;;;;5048190;28;20017;-76
2020/12/03 04:54:19;;;;;;;2.85;1.85;;;13.20;67.50;;;;;;5057854;28;20025;-78
2020/12/03 04:57:14;;;;;;;2.30;1.58;;;13.20;67.50;;;;;;5046727;28;20033;-76
2020/12/03 04:59:56;;;;;;;4.05;1.98;;;13.30;67.50;;;;;;5045666;28;20048;-75
2020/12/03 05:03:06;;;;;;;3.95;2.33;;;13.20;67.50;;;;;;5050522;28;20048;-76
2020/12/03 05:05:53;;;;;;;2.33;1.70;;;13.20;67.50;;;;;;5047245;28;20128;-78
2020/12/03 05:08:37;;;;;;;3.10;1.90;;;13.20;67.50;;;;;;5053254;28;20025;-76
2020/12/03 05:11:25;;;;;;;2.75;1.98;;;13.30;67.50;;;;;;5055439;28;20029;-76
2020/12/03 05:14:08;;;;;;;;;;;13.20;67.50;;;;;;5053992;28;20037;-78
2020/12/03 05:16:49;;;;;;;3.85;2.00;;;13.30;67.50;;;;;;5050505;28;19917;-76
2020/12/03 05:19:50;;;;;;;2.97;2.08;;;13.20;67.50;;;;;;5052694;28;20033;-76
2020/12/03 05:22:29;;;;;;;3.83;1.83;;;13.20;67.60;;;;;;5040703;28;20056;-76
2020/12/03 05:25:19;;;;;;;4.28;2.28;;;13.20;67.60;;;;;;5047786;28;20537;-77
2020/12/03 05:28:01;;;;;;;4.18;2.10;;;13.30;67.50;;;;;;5050480;28;20021;-76
2020/12/03 05:31:02;;;;;;;2.58;1.70;;;13.20;67.50;;;;;;5068762;28;20032;-76
2020/12/03 05:33:38;;;;;;;4.28;2.08;;;13.20;67.50;;;;;;5045281;28;20029;-76
2020/12/03 05:36:26;;;;;;;2.85;1.88;;;13.20;67.50;;;;;;5052685;28;20025;-76
2020/12/03 05:39:12;;;;;;;3.05;1.75;;;13.20;67.60;;;;;;5048786;28;20045;-77
2020/12/03 05:42:04;;;;;;;3.90;2.13;;;13.20;67.60;;;;;;5052711;28;20017;-76
2020/12/03 05:45:08;;;;;;;4.07;1.73;;;13.30;67.60;;;;;;5069203;28;20052;-76
2020/12/03 05:47:40;;;;;;;2.28;1.75;;;13.20;67.50;;;;;;5069977;28;20124;-76
2020/12/03 05:50:42;;;;;;;4.35;2.10;;;13.20;67.50;;;;;;5054235;28;20132;-76
2020/12/03 05:53:17;;;;;;;4.30;2.40;;;13.30;67.60;;;;;;5052595;28;20017;-76
2020/12/03 05:56:08;;;;;;;2.80;1.90;;;13.20;67.60;;;;;;5055972;28;20067;-77
2020/12/03 05:58:53;;;;;;;3.22;2.17;;;13.20;67.60;;;;;;5054985;28;20094;-79
2020/12/03 06:01:31;;;;;;;3.60;2.20;;;13.20;67.60;;;;;;5045180;28;20033;-76
2020/12/03 06:04:31;;;;;;;4.00;2.35;;;13.20;67.60;;;;;;5050323;28;20057;-79
2020/12/03 06:07:38;;;;;;;3.60;2.00;;;13.20;67.60;;;;;;5058413;28;20029;-77
2020/12/03 06:10:35;;;;;;;4.60;2.03;;;13.20;67.60;;;;;;5043698;28;20370;-76
2020/12/03 06:13:27;;;;;;;2.55;1.70;;;13.20;67.50;;;;;;5044467;28;20028;-77
2020/12/03 06:16:11;;;;;;;3.00;2.00;;;13.20;67.60;;;;;;5064162;28;20487;-77
2020/12/03 06:19:08;;;;;;;2.70;1.90;;;13.20;67.60;;;;;;5051124;28;20120;-77
2020/12/03 06:22:02;;;;;;;3.75;2.10;;;13.20;67.60;;;;;;5048505;28;20052;-77
2020/12/03 06:25:22;;;;;;;3.60;1.83;;;13.20;67.60;;;;;;5046500;28;20056;-77
2020/12/03 06:28:25;;;;;;;4.80;2.33;;;13.20;67.60;;;;;;5046193;28;20482;-77
2020/12/03 06:31:26;;;;;;;3.22;1.58;;;13.20;67.60;;;;;;5040691;28;20095;-77
2020/12/03 06:33:59;;;;;;;3.60;1.90;;;13.20;67.60;;;;;;5046264;28;20028;-77
2020/12/03 06:36:57;;;;;;;2.90;1.63;;;13.20;67.70;;;;;;5049155;28;20075;-76
2020/12/03 06:40:10;;;;;;;3.20;1.92;;;13.20;67.60;;;;;;5061883;28;20063;-78
2020/12/03 06:42:49;;;;;;;3.28;2.10;;;13.20;67.60;;;;;;5046796;28;20037;-77
2020/12/03 06:45:24;;;;;;;3.95;2.72;;;13.20;67.60;;;;;;5051532;28;20049;-77
2020/12/03 06:48:14;;;;;;;4.43;2.05;;;13.20;67.60;;;;;;5042489;28;20027;-76
2020/12/03 06:51:04;;;;;;;3.63;2.20;;;13.20;67.60;;;;;;5065100;28;20021;-77
2020/12/03 06:54:15;;;;;;;2.25;1.70;;;13.20;67.60;;;;;;5058724;28;20091;-77
2020/12/03 06:57:38;;;;;;;3.28;2.03;;;13.20;67.60;;;;;;5055808;28;20030;-79
2020/12/03 07:00:37;;;;;;;2.42;1.70;;;13.20;67.60;;;;;;5042945;28;20039;-77
2020/12/03 07:03:51;;;;;;;3.50;1.92;;;13.20;67.70;;;;;;5041142;28;20021;-76
2020/12/03 07:07:01;;;;;;;3.05;1.70;;;13.20;67.60;;;;;;5013584;28;20044;-77
2020/12/03 07:09:55;;;;;;;2.90;1.65;;;13.20;67.60;;;;;;5046499;28;20029;-75
2020/12/03 07:13:00;;;;;;;4.65;2.42;;;13.20;67.60;;;;;;5042393;28;20029;-78
2020/12/03 07:16:03;;;;;;;3.78;1.92;;;13.20;67.60;;;;;;5040152;28;20041;-75
2020/12/03 07:19:06;;;;;;;3.10;2.25;;;13.20;67.60;;;;;;5040787;28;20022;-78
2020/12/03 07:22:21;;;;;;;3.90;1.85;;;13.20;67.60;;;;;;5035766;28;20039;-75
2020/12/03 07:25:01;;;;;;;4.20;1.73;;;13.20;67.60;;;;;;5056217;28;20474;-78
2020/12/03 07:27:52;;;;;;;3.65;1.90;;;13.20;67.60;;;;;;5039232;28;20029;-78
2020/12/03 07:30:45;;;;;;;3.05;2.25;;;13.30;67.60;;;;;;5051016;28;20025;-76
2020/12/03 07:33:24;;;;;;;3.75;1.90;;;13.20;67.50;;;;;;5047346;28;20032;-77
2020/12/03 07:36:24;;;;;;;3.22;2.08;;;13.20;67.50;;;;;;5048535;28;20075;-75
2020/12/03 07:39:10;;;;;;;2.90;1.83;;;13.30;67.50;;;;;;5060350;28;20497;-75
2020/12/03 07:41:53;;;;;;;4.65;2.30;;;13.30;67.50;;;;;;5045514;28;20033;-75
2020/12/03 07:45:11;;;;;;;3.83;1.80;;;13.20;67.50;;;;;;5048597;28;20045;-75
2020/12/03 07:48:33;;;;;;;3.08;2.13;;;13.30;67.50;;;;;;5062595;28;20110;-75
2020/12/03 07:51:07;;;;;;;3.00;1.98;;;13.30;67.40;;;;;;5037871;28;20045;-75
2020/12/03 07:53:43;;;;;;;2.83;1.85;;;13.30;67.40;;;;;;5039337;28;20515;-77
2020/12/03 07:56:43;;;;;;;2.95;1.88;;;13.30;67.40;;;;;;5050879;28;20036;-75
2020/12/03 07:59:37;;;;;;;3.33;1.92;;;13.20;67.40;;;;;;5049715;28;20025;-74
2020/12/03 08:02:58;;;;;;;4.38;2.13;;;13.20;67.40;;;;;;5048262;28;20032;-76
2020/12/03 08:05:53;;;;;;;2.30;1.70;;;13.30;67.40;;;;;;5026964;28;20087;-76
2020/12/03 08:08:33;;;;;;;2.20;1.58;;;13.30;67.30;;;;;;5044773;28;20124;-78
2020/12/03 08:11:04;;;;;;;3.35;1.92;;;13.30;67.30;;;;;;5043058;28;20030;-75
2020/12/03 08:13:54;;;;;;;3.53;2.08;;;13.30;67.30;;;;;;5051296;28;20021;-75
2020/12/03 08:16:52;;;;;;;2.85;2.08;;;13.30;67.30;;;;;;5048987;28;20057;-75
2020/12/03 08:19:44;;;;;;;3.22;1.73;;;13.30;67.30;;;;;;5049037;28;20051;-77
2020/12/03 08:22:30;;;;;;;3.17;1.75;;;13.30;67.30;;;;;;5050272;28;20108;-77
2020/12/03 08:25:22;;;;;;;3.60;2.22;;;13.30;67.30;;;;;;5061881;28;20120;-79
2020/12/03 08:28:05;;;;;;;4.38;1.80;;;13.30;67.20;;;;;;5038225;28;20471;-75
2020/12/03 08:31:05;;;;;;;3.25;2.00;;;13.30;67.20;;;;;;5046047;28;20480;-77
2020/12/03 08:33:29;;;;;;;3.22;1.95;;;13.30;67.30;;;;;;5052271;28;20565;-75
2020/12/03 08:36:02;;;;;;;2.83;1.73;;;13.30;67.30;;;;;;5054447;28;20033;-75
2020/12/03 08:38:51;;;;;;;2.55;1.73;;;13.30;67.20;;;;;;5054881;28;20029;-75
2020/12/03 08:41:28;;;;;;;4.63;1.90;;;13.30;67.20;;;;;;5046387;28;20048;-79
2020/12/03 08:44:14;;;;;;;7.30;3.28;;;13.30;67.20;;;;;;5045231;28;20479;-76
2020/12/03 08:46:59;;;;;;;3.72;2.33;;;13.30;67.20;;;;;;5049482;28;20040;-77
2020/12/03 08:49:31;;;;;;;3.33;1.83;;;13.30;67.20;;;;;;5049241;28;20035;-75
2020/12/03 08:52:07;;;;;;;2.53;1.63;;;13.30;67.10;;;;;;5050299;28;20021;-75
2020/12/03 08:54:51;;;;;;;2.10;1.58;;;13.30;67.10;;;;;;5041526;28;20028;-76
2020/12/03 08:57:33;;;;;;;2.60;1.80;;;13.30;67.10;;;;;;5048708;28;20039;-77
2020/12/03 09:00:07;;;;;;;3.13;2.03;;;13.30;67.00;;;;;;5061891;28;21577;-75
2020/12/03 09:02:39;;;;;;;3.05;2.05;;;13.30;67.00;;;;;;5051202;28;20056;-77
2020/12/03 09:05:20;;;;;;;3.08;1.88;;;13.30;67.00;;;;;;5049263;28;20045;-75
2020/12/03 09:07:52;;;;;;;3.22;2.05;;;13.30;67.00;;;;;;5053070;28;20036;-75
2020/12/03 09:10:22;;;;;;;4.80;2.58;;;13.30;67.00;;;;;;5046849;28;20414;-75
2020/12/03 09:12:54;;;;;;;3.15;1.88;;;13.30;67.00;;;;;;5056894;28;20398;-75
2020/12/03 09:15:39;;;;;;;3.65;2.38;;;13.30;67.00;;;;;;5050682;28;20029;-75
2020/12/03 09:18:14;;;;;;;3.40;2.08;;;13.30;66.90;;;;;;5043329;28;20109;-75
2020/12/03 09:20:48;;;;;;;3.33;1.92;;;13.40;66.90;;;;;;5046930;28;20529;-74
2020/12/03 09:23:46;;;;;;;2.33;1.60;;;13.40;66.90;;;;;;5053047;28;20025;-74
2020/12/03 09:26:34;;;;;;;;;;;13.40;66.80;;;;;;5051104;28;20075;-75
2020/12/03 09:29:18;;;;;;;2.58;1.50;;;13.40;66.80;;;;;;5040799;28;19912;-75
2020/12/03 09:32:10;;;;;;;5.10;2.33;;;13.40;66.80;;;;;;5053447;28;20367;-75
2020/12/03 09:34:52;;;;;;;3.08;1.77;;;13.40;66.80;;;;;;5042673;28;20057;-75
2020/12/03 09:37:30;;;;;;;4.13;1.63;;;13.40;66.80;;;;;;5044067;28;20105;-75
2020/12/03 09:40:15;;;;;;;3.22;2.08;;;13.40;66.70;;;;;;5046807;28;20033;-75
2020/12/03 09:42:51;;;;;;;3.05;1.70;;;13.40;66.70;;;;;;5047482;28;20033;-77
2020/12/03 09:45:22;;;;;;;2.55;2.03;;;13.40;66.70;;;;;;5045938;28;20095;-75
2020/12/03 09:48:17;;;;;;;2.85;1.98;;;13.40;66.70;;;;;;5048921;28;20033;-77
2020/12/03 09:50:57;;;;;;;3.67;2.08;;;13.40;66.70;;;;;;5045503;28;20514;-75
2020/12/03 09:54:07;;;;;;;;;;;;;;;;;;;;;
2020/12/03 09:56:37;;;;;;;3.72;1.92;;;13.40;66.60;;;;;;5044887;28;20114;-75
2020/12/03 09:59:19;;;;;;;3.08;1.88;;;13.40;66.60;;;;;;5047968;28;20104;-77
2020/12/03 10:02:12;;;;;;;4.05;2.05;;;13.40;66.60;;;;;;5039714;28;20471;-75
2020/12/03 10:05:31;;;;;;;2.78;1.85;;;13.40;66.60;;;;;;5041048;28;20482;-74
2020/12/03 10:08:33;;;;;;;2.28;1.60;;;13.40;66.60;;;;;;5050225;28;20044;-76
2020/12/03 10:11:07;;;;;;;3.42;2.17;;;13.40;66.50;;;;;;5052601;28;20061;-75
2020/12/03 10:14:17;;;;;;;3.47;2.10;;;13.50;66.60;;;;;;5040103;28;20025;-77
2020/12/03 10:17:11;;;;;;;3.30;1.60;;;13.40;66.50;;;;;;5035277;28;20390;-75
2020/12/03 10:19:46;;;;;;;3.47;2.20;;;13.40;66.50;;;;;;5045817;28;20382;-75
2020/12/03 10:22:22;;;;;;;2.60;1.60;;;13.40;66.50;;;;;;5041662;28;20075;-78
2020/12/03 10:25:11;;;;;;;4.05;2.35;;;13.50;66.50;;;;;;5044373;28;20032;-76
2020/12/03 10:28:12;;;;;;;2.53;1.48;;;13.50;66.50;;;;;;5047052;28;20467;-75
2020/12/03 10:30:42;;;;;;;2.63;1.67;;;13.40;66.40;;;;;;5041115;28;20034;-75
2020/12/03 10:33:16;;;;;;;2.42;1.80;;;13.50;66.40;;;;;;5051878;28;20056;-75
2020/12/03 10:35:59;;;;;;;2.15;1.70;;;13.50;66.30;;;;;;5041664;28;20029;-77
2020/12/03 10:38:56;;;;;;;2.88;1.70;;;13.50;66.30;;;;;;5046550;28;20459;-76
2020/12/03 10:41:36;;;;;;;4.40;2.03;;;13.50;66.30;;;;;;5050604;28;20028;-77
2020/12/03 10:44:10;;;;;;;2.67;1.70;;;13.50;66.30;;;;;;5045873;28;20482;-77
2020/12/03 10:46:52;;;;;;;2.83;1.60;;;13.50;66.30;;;;;;5038009;28;20029;-76
2020/12/03 10:49:35;;;;;;;2.55;1.65;;;13.50;66.30;;;;;;5039648;28;20066;-75
2020/12/03 10:52:35;;;;;;;2.45;1.75;;;13.50;66.30;;;;;;5050312;28;20037;-75
2020/12/03 10:55:06;;;;;;;1.65;1.45;;;13.50;66.30;;;;;;5043772;28;20059;-76
2020/12/03 10:57:48;;;;;;;3.22;1.92;;;13.50;66.20;;;;;;5042206;28;20025;-77
2020/12/03 11:00:31;;;;;;;2.70;1.85;;;13.50;66.20;;;;;;5043642;28;20079;-76
2020/12/03 11:03:19;;;;;;;2.55;1.63;;;13.50;66.20;;;;;;5055280;28;20028;-75
2020/12/03 11:06:20;;;;;;;;;;;;;;;;;;;;;
2020/12/03 11:08:57;;;;;;;3.33;1.80;;;13.50;66.20;;;;;;5050847;28;20029;-75
2020/12/03 11:11:36;;;;;;;4.43;2.03;;;13.50;66.30;;;;;;5048724;28;20029;-75
2020/12/03 11:14:24;;;;;;;2.17;1.30;;;13.50;66.30;;;;;;5058400;28;20467;-77
2020/12/03 11:17:26;;;;;;;3.03;1.85;;;13.50;66.30;;;;;;5038625;28;20021;-76
2020/12/03 11:20:05;;;;;;;3.13;1.83;;;13.50;66.40;;;;;;5050542;28;20130;-76
2020/12/03 11:23:21;;;;;;;;;;;;;;;;;;;;;
2020/12/03 11:25:56;;;;;;;3.33;1.75;;;13.40;66.40;;;;;;5035417;28;20063;-75
2020/12/03 11:28:36;;;;;;;2.60;1.67;;;13.50;66.40;;;;;;5044849;28;20076;-76
2020/12/03 11:31:08;;;;;;;3.17;2.00;;;13.50;66.40;;;;;;5043476;28;20025;-78
2020/12/03 11:33:41;;;;;;;2.70;2.10;;;13.50;66.40;;;;;;5043632;28;20021;-76
2020/12/03 11:36:15;;;;;;;2.50;1.73;;;13.50;66.40;;;;;;5051302;28;20033;-75
2020/12/03 11:39:00;;;;;;;2.50;1.80;;;13.50;66.30;;;;;;5043281;28;20074;-81
2020/12/03 11:44:43;;;;;;;3.60;1.80;;;13.50;66.30;;;;;;5050138;28;20190;-76
2020/12/03 11:50:36;;;;;;;2.42;1.58;;;13.50;66.30;;;;;;5038744;28;20044;-75
2020/12/03 11:53:25;;;;;;;2.60;1.60;;;13.50;66.20;;;;;;5053953;28;20116;-75
2020/12/03 11:56:17;;;;;;;3.28;1.88;;;13.50;66.30;;;;;;5042948;28;20025;-75
2020/12/03 11:58:53;;;;;;;3.45;1.67;;;13.50;66.20;;;;;;5051261;28;20416;-76
2020/12/03 12:01:56;;;;;;;3.08;1.63;;;13.50;66.30;;;;;;5045553;28;20025;-76
2020/12/03 12:07:41;;;;;;;3.72;1.77;;;13.50;66.30;;;;;;5039395;28;20040;-75
2020/12/03 12:13:14;;;;;;;4.15;1.70;;;13.50;66.30;;;;;;5032028;28;20135;-75
2020/12/03 12:15:51;;;;;;;2.42;1.73;;;13.50;66.30;;;;;;5025629;28;20025;-75
2020/12/03 12:18:53;;;;;;;3.35;2.00;;;13.50;66.30;;;;;;5023838;28;20125;-76
2020/12/03 12:21:33;;;;;;;2.75;1.83;;;13.50;66.30;;;;;;5016375;28;20029;-75
2020/12/03 12:24:19;;;;;;;3.13;1.75;;;13.50;66.30;;;;;;5028721;28;20041;-75
2020/12/03 12:26:49;;;;;;;2.55;1.75;;;13.50;66.30;;;;;;5029789;28;20489;-75
2020/12/03 12:29:26;;;;;;;2.67;1.80;;;13.50;66.30;;;;;;5012069;28;20040;-75
2020/12/03 12:32:04;;;;;;;4.28;2.00;;;13.50;66.30;;;;;;5011316;28;20087;-78
2020/12/03 12:34:34;;;;;;;2.85;1.48;;;13.50;66.20;;;;;;5025264;28;20041;-75
2020/12/03 12:37:05;;;;;;;3.25;1.92;;;13.50;66.20;;;;;;5023652;28;20136;-74
2020/12/03 12:39:30;;;;;;;3.70;2.00;;;13.50;66.20;;;;;;5006537;28;20049;-75
2020/12/03 12:42:04;;;;;;;2.70;1.98;;;13.50;66.20;;;;;;5007452;28;20022;-75
2020/12/03 12:44:34;;;;;;;3.05;1.77;;;13.50;66.20;;;;;;5026588;28;20048;-75
2020/12/03 12:47:06;;;;;;;2.78;1.88;;;13.50;66.20;;;;;;5047192;28;20037;-78
2020/12/03 12:49:37;;;;;;;3.53;1.98;;;13.50;66.20;;;;;;5064602;28;20055;-75
2020/12/03 12:52:08;;;;;;;3.55;1.80;;;13.50;66.20;;;;;;5049560;28;20031;-77
2020/12/03 12:54:55;;;;;;;2.83;1.70;;;13.50;66.20;;;;;;5043412;28;20113;-77
2020/12/03 12:57:23;;;;;;;3.05;1.90;;;13.50;66.20;;;;;;5049762;28;20029;-75
2020/12/03 12:59:54;;;;;;;2.28;1.88;;;13.50;66.20;;;;;;5043927;28;20028;-75
2020/12/03 13:02:21;;;;;;;2.72;1.83;;;13.50;66.20;;;;;;5050934;28;20029;-75
2020/12/03 13:04:51;;;;;;;2.42;1.63;;;13.50;66.20;;;;;;5048535;28;20095;-75
2020/12/03 13:07:30;;;;;;;2.50;1.52;;;13.50;66.30;;;;;;5043744;28;20037;-79
2020/12/03 13:10:07;;;;;;;3.47;1.88;;;13.50;66.30;;;;;;5064962;28;20021;-75
2020/12/03 13:12:37;;;;;;;2.95;1.77;;;13.50;66.20;;;;;;5047078;28;20030;-75
2020/12/03 13:15:15;;;;;;;2.95;1.85;;;13.50;66.20;;;;;;5047619;28;20025;-76
2020/12/03 13:17:47;;;;;;;2.47;1.70;;;13.50;66.20;;;;;;5050031;28;20124;-76
2020/12/03 13:20:17;;;;;;;3.42;1.90;;;13.50;66.20;;;;;;5055179;28;20037;-75
2020/12/03 13:22:57;;;;;;;2.90;1.80;;;13.50;66.20;;;;;;5054469;28;20132;-80
2020/12/03 13:25:42;;;;;;;3.38;1.80;;;13.50;66.20;;;;;;5052867;28;20025;-75
2020/12/03 13:28:20;;;;;;;3.00;1.65;;;13.50;66.30;;;;;;5051352;28;20037;-75
2020/12/03 13:30:50;;;;;;;2.10;1.60;;;13.50;66.20;;;;;;5048633;28;20099;-76
2020/12/03 13:33:21;;;;;;;2.55;1.70;;;13.50;66.30;;;;;;5048930;28;20033;-75
2020/12/03 13:36:07;;;;;;;2.20;1.52;;;13.50;66.30;;;;;;5042679;28;20133;-77
2020/12/03 13:39:01;;;;;;;2.95;1.75;;;13.50;66.30;;;;;;5050768;28;20020;-76
2020/12/03 13:41:40;;;;;;;2.83;1.85;;;13.50;66.30;;;;;;5038945;28;20483;-77
2020/12/03 13:44:16;;;;;;;3.65;2.05;;;13.50;66.30;;;;;;5039444;28;20049;-75
2020/12/03 13:47:03;;;;;;;2.60;1.40;;;13.50;66.30;;;;;;5064507;28;20040;-78
2020/12/03 13:49:32;;;;;;;2.55;1.85;;;13.50;66.30;;;;;;5041665;28;20060;-75
2020/12/03 13:52:06;;;;;;;2.70;1.60;;;13.50;66.30;;;;;;5048424;28;20386;-75
2020/12/03 13:54:47;;;;;;;2.05;1.45;;;13.50;66.30;;;;;;5049244;28;20059;-77
2020/12/03 13:57:28;;;;;;;2.10;1.55;;;13.50;66.30;;;;;;5061189;28;20445;-76
2020/12/03 14:00:06;;;;;;;2.05;1.50;;;13.40;66.40;;;;;;5040709;28;20121;-75
2020/12/03 14:02:52;;;;;;;2.20;1.48;;;13.50;66.30;;;;;;5050959;28;20082;-81
2020/12/03 14:05:17;;;;;;;2.80;1.70;;;13.50;66.40;;;;;;5062043;28;20430;-75
2020/12/03 14:07:46;;;;;;;2.33;1.80;;;13.40;66.40;;;;;;5054511;28;20117;-75
2020/12/03 14:10:29;;;;;;;2.47;1.50;;;13.50;66.40;;;;;;5045332;28;20021;-77
2020/12/03 14:13:17;;;;;;;2.53;1.70;;;13.40;66.40;;;;;;5047399;28;20474;-75
2020/12/03 14:16:04;;;;;;;2.27;1.60;;;13.40;66.40;;;;;;5047979;28;20467;-76
2020/12/03 14:18:35;;;;;;;1.97;1.50;;;13.50;66.40;;;;;;5043797;28;20516;-75
2020/12/03 14:21:25;;;;;;;3.80;1.67;;;13.50;66.40;;;;;;5053850;28;20231;-75
2020/12/03 14:24:14;;;;;;;2.47;1.42;;;13.40;66.50;;;;;;5053766;28;20327;-75
2020/12/03 14:26:44;;;;;;;3.72;1.52;;;13.40;66.50;;;;;;5065005;28;20030;-76
2020/12/03 14:29:23;;;;;;;2.97;1.80;;;13.40;66.50;;;;;;5052075;28;20040;-75
2020/12/03 14:31:54;;;;;;;2.65;1.42;;;13.40;66.50;;;;;;5042441;28;20025;-75